createdAt,value
2019-02-08T00:02:05.320Z,98027.66
2019-02-08T00:04:35.759Z,98027.59
2019-02-08T00:07:12.767Z,98023.88
2019-02-08T00:09:43.121Z,98013.84
2019-02-08T00:12:14.605Z,98016.48
2019-02-08T00:14:45.091Z,98020.53
2019-02-08T00:17:15.466Z,98017.13
2019-02-08T00:19:45.802Z,98017.62
2019-02-08T00:22:16.413Z,98021.02
2019-02-08T00:24:46.864Z,98028.80
2019-02-08T00:27:17.265Z,98029.27
2019-02-08T00:29:47.624Z,98033.19
2019-02-08T00:32:17.937Z,98033.39
2019-02-08T00:34:48.243Z,98035.10
2019-02-08T00:37:18.599Z,98029.27
2019-02-08T00:39:48.927Z,98028.98
2019-02-08T00:42:19.145Z,98024.44
2019-02-08T00:44:49.425Z,98018.64
2019-02-08T00:47:19.781Z,98017.92
2019-02-08T00:49:50.145Z,98033.06
2019-02-08T00:52:28.632Z,98030.35
2019-02-08T00:54:58.895Z,98034.14
2019-02-08T00:57:29.262Z,98036.56
2019-02-08T00:59:59.684Z,98040.56
2019-02-08T01:02:30.088Z,98049.28
2019-02-08T01:05:00.449Z,98052.27
2019-02-08T01:07:30.785Z,98055.59
2019-02-08T01:10:01.294Z,98058.52
2019-02-08T01:12:31.687Z,98071.09
2019-02-08T01:15:02.048Z,98071.56
2019-02-08T01:17:32.403Z,98066.88
2019-02-08T01:20:08.923Z,98072.91
2019-02-08T01:22:39.254Z,98067.44
2019-02-08T01:25:13.438Z,98066.59
2019-02-08T01:27:43.916Z,98057.77
2019-02-08T01:30:18.135Z,98066.84
2019-02-08T01:32:48.633Z,98071.53
2019-02-08T01:35:20.288Z,98076.64
2019-02-08T01:37:50.660Z,98075.72
2019-02-08T01:40:26.978Z,98074.20
2019-02-08T01:42:57.405Z,98078.15
2019-02-08T01:45:30.511Z,98073.47
2019-02-08T01:48:01.380Z,98079.02
2019-02-08T01:50:32.155Z,98076.61
2019-02-08T01:53:02.643Z,98070.80
2019-02-08T01:55:32.965Z,98072.98
2019-02-08T01:58:03.372Z,98069.68
2019-02-08T02:00:44.440Z,98072.66
2019-02-08T02:03:15.036Z,98072.77
2019-02-08T02:05:45.468Z,98071.66
2019-02-08T02:08:15.827Z,98073.23
2019-02-08T02:10:46.665Z,98066.41
2019-02-08T02:13:16.966Z,98065.25
2019-02-08T02:15:47.333Z,98063.30
2019-02-08T02:18:17.672Z,98065.75
2019-02-08T02:20:47.971Z,98063.44
2019-02-08T02:23:18.558Z,98058.09
2019-02-08T02:25:48.931Z,98052.93
2019-02-08T02:28:19.231Z,98056.31
2019-02-08T02:30:49.481Z,98050.05
2019-02-08T02:33:19.783Z,98045.17
2019-02-08T02:35:50.177Z,98049.71
2019-02-08T02:38:20.490Z,98061.13
2019-02-08T02:40:50.872Z,98055.38
2019-02-08T02:43:21.334Z,98055.80
2019-02-08T02:45:51.607Z,98047.06
2019-02-08T02:48:21.988Z,98049.95
2019-02-08T02:50:52.265Z,98051.02
2019-02-08T02:53:24.441Z,98052.69
2019-02-08T02:55:54.772Z,98047.90
2019-02-08T02:58:25.148Z,98055.63
2019-02-08T03:00:55.522Z,98053.67
2019-02-08T03:03:25.886Z,98058.84
2019-02-08T03:05:56.212Z,98053.33
2019-02-08T03:08:26.687Z,98046.73
2019-02-08T03:10:57.089Z,98049.70
2019-02-08T03:13:27.331Z,98045.53
2019-02-08T03:15:57.679Z,98039.12
2019-02-08T03:18:28.057Z,98045.52
2019-02-08T03:20:58.420Z,98047.22
2019-02-08T03:23:28.903Z,98044.38
2019-02-08T03:25:59.287Z,98039.64
2019-02-08T03:28:29.532Z,98038.94
2019-02-08T03:30:59.852Z,98049.20
2019-02-08T03:33:30.224Z,98048.48
2019-02-08T03:36:00.605Z,98049.14
2019-02-08T03:38:30.858Z,98042.37
2019-02-08T03:41:01.225Z,98048.48
2019-02-08T03:43:31.591Z,98037.53
2019-02-08T03:46:01.944Z,98033.19
2019-02-08T03:48:33.332Z,98036.53
2019-02-08T03:51:03.788Z,98042.00
2019-02-08T03:53:33.964Z,98038.92
2019-02-08T03:56:06.359Z,98034.63
2019-02-08T03:58:36.734Z,98043.28
2019-02-08T04:01:08.542Z,98044.10
2019-02-08T04:03:39.395Z,98044.55
2019-02-08T04:06:09.752Z,98037.75
2019-02-08T04:08:41.233Z,98040.34
2019-02-08T04:11:11.607Z,98031.94
2019-02-08T04:13:42.039Z,98032.44
2019-02-08T04:16:12.384Z,98045.42
2019-02-08T04:18:42.853Z,98040.56
2019-02-08T04:21:13.137Z,98041.13
2019-02-08T04:23:43.530Z,98044.27
2019-02-08T04:26:13.705Z,98044.73
2019-02-08T04:28:43.932Z,98042.63
2019-02-08T04:31:14.251Z,98038.69
2019-02-08T04:33:44.554Z,98037.64
2019-02-08T04:36:14.828Z,98039.36
2019-02-08T04:38:45.030Z,98043.18
2019-02-08T04:41:15.308Z,98050.86
2019-02-08T04:43:45.516Z,98042.76
2019-02-08T04:46:15.807Z,98050.86
2019-02-08T04:48:47.040Z,98053.67
2019-02-08T04:51:17.263Z,98056.31
2019-02-08T04:53:47.481Z,98057.89
2019-02-08T04:56:17.770Z,98052.00
2019-02-08T04:58:47.942Z,98062.67
2019-02-08T05:01:18.339Z,98056.59
2019-02-08T05:03:48.580Z,98060.27
2019-02-08T05:06:18.891Z,98054.72
2019-02-08T05:08:49.208Z,98056.52
2019-02-08T05:11:19.417Z,98056.59
2019-02-08T05:13:49.693Z,98058.81
2019-02-08T05:16:19.911Z,98061.63
2019-02-08T05:18:50.286Z,98059.03
2019-02-08T05:21:20.618Z,98053.98
2019-02-08T05:23:50.992Z,98048.48
2019-02-08T05:26:21.312Z,98050.06
2019-02-08T05:28:51.589Z,98047.75
2019-02-08T05:31:21.910Z,98042.96
2019-02-08T05:33:52.234Z,98044.59
2019-02-08T05:36:22.479Z,98036.80
2019-02-08T05:38:52.696Z,98033.59
2019-02-08T05:41:22.853Z,98036.43
2019-02-08T05:43:53.273Z,98042.53
2019-02-08T05:46:23.573Z,98037.89
2019-02-08T05:48:53.786Z,98037.98
2019-02-08T05:51:24.076Z,98047.61
2019-02-08T05:53:54.423Z,98030.08
2019-02-08T05:56:24.594Z,98027.58
2019-02-08T05:58:54.899Z,98031.72
2019-02-08T06:01:25.308Z,98040.86
2019-02-08T06:03:55.704Z,98032.86
2019-02-08T06:06:25.923Z,98039.22
2019-02-08T06:08:56.312Z,98045.05
2019-02-08T06:11:26.611Z,98055.00
2019-02-08T06:13:57.127Z,98052.02
2019-02-08T06:16:27.512Z,98055.42
2019-02-08T06:18:57.864Z,98061.74
2019-02-08T06:21:28.310Z,98061.27
2019-02-08T06:23:58.643Z,98061.27
2019-02-08T06:26:28.950Z,98065.40
2019-02-08T06:28:59.551Z,98064.77
2019-02-08T06:31:29.912Z,98074.22
2019-02-08T06:34:00.307Z,98071.16
2019-02-08T06:36:30.601Z,98065.66
2019-02-08T06:39:00.866Z,98066.39
2019-02-08T06:41:31.347Z,98064.83
2019-02-08T06:44:01.669Z,98063.52
2019-02-08T06:46:32.031Z,98062.76
2019-02-08T06:49:03.415Z,98056.69
2019-02-08T06:51:33.795Z,98059.55
2019-02-08T06:54:04.373Z,98063.25
2019-02-08T06:56:53.617Z,98064.39
2019-02-08T06:59:34.572Z,98073.56
2019-02-08T07:02:29.928Z,98066.38
2019-02-08T07:05:19.367Z,98072.38
2019-02-08T07:08:27.006Z,98066.29
2019-02-08T07:11:22.629Z,98076.91
2019-02-08T07:14:03.643Z,98078.92
2019-02-08T07:16:53.057Z,98090.78
2019-02-08T07:19:45.486Z,98086.91
2019-02-08T07:22:34.774Z,98085.32
2019-02-08T07:25:18.562Z,98086.68
2019-02-08T07:28:03.482Z,98079.79
2019-02-08T07:31:06.807Z,98088.32
2019-02-08T07:33:53.370Z,98090.37
2019-02-08T07:36:41.461Z,98084.88
2019-02-08T07:39:33.651Z,98091.89
2019-02-08T07:42:22.135Z,98086.58
2019-02-08T07:45:06.208Z,98096.27
2019-02-08T07:47:48.396Z,98099.05
2019-02-08T07:50:39.648Z,98094.34
2019-02-08T07:53:18.160Z,98100.41
2019-02-08T07:56:17.724Z,98097.23
2019-02-08T07:59:10.278Z,98092.36
2019-02-08T08:01:55.407Z,98088.98
2019-02-08T08:04:52.398Z,98084.23
2019-02-08T08:07:35.856Z,98093.91
2019-02-08T08:10:18.523Z,98088.02
2019-02-08T08:13:10.295Z,98092.81
2019-02-08T08:16:11.336Z,98094.17
2019-02-08T08:19:04.113Z,98089.72
2019-02-08T08:21:46.662Z,98092.05
2019-02-08T08:24:44.131Z,98091.42
2019-02-08T08:27:22.611Z,98096.34
2019-02-08T08:30:05.698Z,98091.12
2019-02-08T08:32:48.971Z,98084.27
2019-02-08T08:36:24.262Z,98091.40
2019-02-08T08:39:39.304Z,98090.59
2019-02-08T08:42:53.394Z,98091.80
2019-02-08T08:46:14.470Z,98093.02
2019-02-08T08:49:52.097Z,98085.66
2019-02-08T08:53:02.927Z,98082.84
2019-02-08T08:56:34.502Z,98095.67
2019-02-08T09:00:06.271Z,98090.19
2019-02-08T09:03:16.187Z,98090.72
2019-02-08T09:07:03.400Z,98078.13
2019-02-08T09:10:51.691Z,98070.08
2019-02-08T09:14:36.540Z,98060.94
2019-02-08T09:18:18.225Z,98056.73
2019-02-08T09:21:34.750Z,98057.23
2019-02-08T09:25:05.056Z,98053.36
2019-02-08T09:28:16.634Z,98056.90
2019-02-08T09:31:24.476Z,98054.06
2019-02-08T09:34:47.309Z,98045.35
2019-02-08T09:38:08.214Z,98049.60
2019-02-08T09:41:43.440Z,98055.69
2019-02-08T09:45:22.954Z,98055.77
2019-02-08T09:48:52.286Z,98058.16
2019-02-08T09:52:26.662Z,98054.06
2019-02-08T09:55:45.528Z,98050.79
2019-02-08T09:59:13.360Z,98052.23
2019-02-08T10:02:42.174Z,98048.05
2019-02-08T10:06:09.969Z,98052.61
2019-02-08T10:09:42.556Z,98046.38
2019-02-08T10:13:02.695Z,98046.29
2019-02-08T10:16:32.198Z,98053.66
2019-02-08T10:19:53.424Z,98051.89
2019-02-08T10:23:27.610Z,98060.07
2019-02-08T10:27:05.949Z,98053.77
2019-02-08T10:30:33.639Z,98044.70
2019-02-08T10:33:52.732Z,98044.73
2019-02-08T10:37:19.632Z,98047.54
2019-02-08T10:41:02.403Z,98050.05
2019-02-08T10:44:34.167Z,98034.17
2019-02-08T10:48:00.537Z,98031.02
2019-02-08T10:51:32.764Z,98017.98
2019-02-08T10:55:04.696Z,98023.13
2019-02-08T10:59:03.650Z,98020.94
2019-02-08T11:02:32.725Z,98003.83
2019-02-08T11:05:53.772Z,97991.28
2019-02-08T11:09:32.480Z,97988.11
2019-02-08T11:12:57.037Z,97984.14
2019-02-08T11:16:21.382Z,97974.24
2019-02-08T11:19:18.267Z,97974.20
2019-02-08T11:21:51.062Z,97973.58
2019-02-08T11:24:24.509Z,97979.80
2019-02-08T11:26:56.858Z,97975.32
2019-02-08T11:29:27.466Z,97964.20
2019-02-08T11:31:57.914Z,97974.13
2019-02-08T11:34:28.403Z,97967.92
2019-02-08T11:36:58.791Z,97967.41
2019-02-08T11:39:29.190Z,97962.23
2019-02-08T11:41:59.628Z,97961.33
2019-02-08T11:44:30.033Z,97953.36
2019-02-08T11:47:00.442Z,97949.28
2019-02-08T11:49:30.893Z,97947.20
2019-02-08T11:52:01.262Z,97943.74
2019-02-08T11:54:31.606Z,97943.12
2019-02-08T11:57:01.925Z,97938.50
2019-02-08T11:59:32.297Z,97943.25
2019-02-08T12:02:02.775Z,97930.66
2019-02-08T12:04:33.145Z,97926.48
2019-02-08T12:07:03.615Z,97927.59
2019-02-08T12:09:34.147Z,97930.23
2019-02-08T12:12:04.541Z,97925.15
2019-02-08T12:14:34.964Z,97917.19
2019-02-08T12:17:05.469Z,97909.18
2019-02-08T12:19:36.001Z,97908.30
2019-02-08T12:22:06.384Z,97902.64
2019-02-08T12:24:36.768Z,97901.97
2019-02-08T12:27:07.178Z,97897.47
2019-02-08T12:29:37.574Z,97888.34
2019-02-08T12:32:07.955Z,97879.66
2019-02-08T12:34:38.247Z,97878.47
2019-02-08T12:37:08.752Z,97873.64
2019-02-08T12:39:39.112Z,97864.39
2019-02-08T12:42:09.524Z,97862.48
2019-02-08T12:44:39.944Z,97858.14
2019-02-08T12:47:10.587Z,97856.76
2019-02-08T12:49:40.894Z,97859.39
2019-02-08T12:52:11.354Z,97851.39
2019-02-08T12:54:41.762Z,97850.53
2019-02-08T12:57:12.010Z,97842.94
2019-02-08T12:59:42.756Z,97839.95
2019-02-08T13:02:13.067Z,97838.00
2019-02-08T13:04:43.439Z,97837.08
2019-02-08T13:07:13.896Z,97829.70
2019-02-08T13:09:44.097Z,97830.05
2019-02-08T13:12:14.574Z,97823.45
2019-02-08T13:14:44.996Z,97824.03
2019-02-08T13:17:15.950Z,97820.01
2019-02-08T13:19:46.411Z,97815.28
2019-02-08T13:22:17.883Z,97812.00
2019-02-08T13:24:48.240Z,97807.76
2019-02-08T13:27:18.692Z,97809.86
2019-02-08T13:29:49.149Z,97805.20
2019-02-08T13:32:19.341Z,97803.87
2019-02-08T13:34:49.729Z,97803.80
2019-02-08T13:37:20.308Z,97801.37
2019-02-08T13:39:50.653Z,97788.50
2019-02-08T13:42:21.068Z,97785.16
2019-02-08T13:44:51.565Z,97779.12
2019-02-08T13:47:22.013Z,97780.14
2019-02-08T13:49:52.415Z,97776.00
2019-02-08T13:52:22.759Z,97778.32
2019-02-08T13:54:53.252Z,97772.66
2019-02-08T13:57:23.871Z,97773.68
2019-02-08T13:59:54.222Z,97769.89
2019-02-08T14:02:24.565Z,97776.14
2019-02-08T14:04:54.968Z,97763.26
2019-02-08T14:07:25.397Z,97761.30
2019-02-08T14:09:55.828Z,97756.67
2019-02-08T14:12:26.332Z,97746.66
2019-02-08T14:14:58.031Z,97754.11
2019-02-08T14:17:28.521Z,97742.55
2019-02-08T14:19:58.805Z,97748.90
2019-02-08T14:22:29.219Z,97733.56
2019-02-08T14:24:59.511Z,97732.73
2019-02-08T14:27:29.902Z,97735.73
2019-02-08T14:30:00.298Z,97732.66
2019-02-08T14:32:30.623Z,97733.25
2019-02-08T14:35:00.979Z,97731.02
2019-02-08T14:37:31.424Z,97723.33
2019-02-08T14:40:01.646Z,97725.06
2019-02-08T14:42:31.856Z,97719.55
2019-02-08T14:45:02.260Z,97715.39
2019-02-08T14:47:33.660Z,97711.47
2019-02-08T14:50:05.267Z,97715.39
2019-02-08T14:52:35.675Z,97709.12
2019-02-08T14:55:07.354Z,97707.81
2019-02-08T14:57:37.746Z,97704.09
2019-02-08T15:00:14.389Z,97694.53
2019-02-08T15:02:44.837Z,97692.14
2019-02-08T15:05:16.652Z,97692.98
2019-02-08T15:07:47.137Z,97682.33
2019-02-08T15:10:24.191Z,97682.08
2019-02-08T15:12:54.974Z,97670.97
2019-02-08T15:15:25.365Z,97674.20
2019-02-08T15:17:55.785Z,97664.53
2019-02-08T15:20:27.779Z,97668.05
2019-02-08T15:22:58.154Z,97664.06
2019-02-08T15:25:28.706Z,97660.64
2019-02-08T15:27:59.092Z,97655.06
2019-02-08T15:30:32.074Z,97655.58
2019-02-08T15:33:02.490Z,97651.85
2019-02-08T15:35:33.070Z,97646.25
2019-02-08T15:38:03.750Z,97650.42
2019-02-08T15:40:38.854Z,97648.19
2019-02-08T15:43:10.204Z,97650.32
2019-02-08T15:45:41.420Z,97645.39
2019-02-08T15:48:12.965Z,97638.24
2019-02-08T15:50:43.377Z,97633.94
2019-02-08T15:53:13.716Z,97636.15
2019-02-08T15:55:46.287Z,97621.20
2019-02-08T15:58:17.023Z,97620.34
2019-02-08T16:00:47.481Z,97610.00
2019-02-08T16:03:18.226Z,97614.02
2019-02-08T16:05:48.689Z,97616.23
2019-02-08T16:08:19.098Z,97611.98
2019-02-08T16:10:49.470Z,97610.20
2019-02-08T16:13:19.771Z,97606.63
2019-02-08T16:15:50.301Z,97604.84
2019-02-08T16:18:20.612Z,97604.73
2019-02-08T16:20:51.118Z,97599.09
2019-02-08T16:23:21.493Z,97600.45
2019-02-08T16:25:51.723Z,97601.94
2019-02-08T16:28:21.371Z,97600.62
2019-02-08T16:30:51.696Z,97591.55
2019-02-08T16:33:22.691Z,97598.13
2019-02-08T16:35:53.110Z,97591.23
2019-02-08T16:38:23.369Z,97594.84
2019-02-08T16:40:54.391Z,97588.93
2019-02-08T16:43:25.013Z,97592.96
2019-02-08T16:45:55.450Z,97595.75
2019-02-08T16:48:25.892Z,97594.44
2019-02-08T16:50:56.674Z,97586.06
2019-02-08T16:53:27.194Z,97586.93
2019-02-08T16:55:57.663Z,97582.88
2019-02-08T16:58:28.082Z,97581.52
2019-02-08T17:00:58.721Z,97579.31
2019-02-08T17:03:29.033Z,97577.63
2019-02-08T17:05:59.340Z,97576.08
2019-02-08T17:08:29.723Z,97579.59
2019-02-08T17:11:00.169Z,97575.33
2019-02-08T17:13:31.020Z,97567.86
2019-02-08T17:16:01.328Z,97563.84
2019-02-08T17:18:31.732Z,97565.72
2019-02-08T17:21:02.242Z,97566.18
2019-02-08T17:23:32.617Z,97568.02
2019-02-08T17:26:02.859Z,97564.38
2019-02-08T17:28:33.092Z,97557.98
2019-02-08T17:31:03.444Z,97566.23
2019-02-08T17:33:33.641Z,97559.78
2019-02-08T17:36:04.000Z,97559.42
2019-02-08T17:38:35.633Z,97557.89
2019-02-08T17:41:06.531Z,97560.22
2019-02-08T17:43:36.912Z,97555.46
2019-02-08T17:46:07.614Z,97551.66
2019-02-08T17:48:37.972Z,97547.74
2019-02-08T17:51:08.355Z,97551.61
2019-02-08T17:53:38.623Z,97553.28
2019-02-08T17:56:08.971Z,97548.75
2019-02-08T17:58:39.179Z,97550.74
2019-02-08T18:01:09.560Z,97550.28
2019-02-08T18:03:39.667Z,97549.98
2019-02-08T18:06:09.928Z,97545.72
2019-02-08T18:08:40.076Z,97547.56
2019-02-08T18:11:10.427Z,97544.83
2019-02-08T18:13:40.589Z,97547.19
2019-02-08T18:16:10.874Z,97541.73
2019-02-08T18:18:41.227Z,97533.95
2019-02-08T18:21:12.486Z,97528.89
2019-02-08T18:23:43.013Z,97526.48
2019-02-08T18:26:13.430Z,97540.85
2019-02-08T18:28:43.648Z,97538.06
2019-02-08T18:31:13.905Z,97540.53
2019-02-08T18:33:44.281Z,97527.51
2019-02-08T18:36:14.980Z,97523.59
2019-02-08T18:38:45.609Z,97526.50
2019-02-08T18:41:16.404Z,97519.47
2019-02-08T18:43:46.929Z,97531.50
2019-02-08T18:46:17.344Z,97533.34
2019-02-08T18:48:47.962Z,97527.98
2019-02-08T18:51:18.244Z,97524.38
2019-02-08T18:53:48.510Z,97520.08
2019-02-08T18:56:18.956Z,97512.97
2019-02-08T18:58:49.363Z,97523.33
2019-02-08T19:01:19.702Z,97517.80
2019-02-08T19:03:50.140Z,97509.22
2019-02-08T19:06:20.584Z,97512.56
2019-02-08T19:08:50.894Z,97507.02
2019-02-08T19:11:21.292Z,97505.13
2019-02-08T19:13:51.715Z,97502.73
2019-02-08T19:16:22.051Z,97506.58
2019-02-08T19:18:52.288Z,97508.87
2019-02-08T19:21:22.669Z,97491.64
2019-02-08T19:23:53.035Z,97490.22
2019-02-08T19:26:23.379Z,97485.78
2019-02-08T19:28:53.911Z,97477.77
2019-02-08T19:31:24.452Z,97480.88
2019-02-08T19:33:54.704Z,97476.89
2019-02-08T19:36:25.231Z,97473.67
2019-02-08T19:38:55.494Z,97475.01
2019-02-08T19:41:25.856Z,97466.36
2019-02-08T19:43:56.189Z,97459.16
2019-02-08T19:46:26.650Z,97458.80
2019-02-08T19:48:56.918Z,97453.09
2019-02-08T19:51:27.379Z,97449.05
2019-02-08T19:53:57.517Z,97443.88
2019-02-08T19:56:27.925Z,97443.11
2019-02-08T19:58:58.142Z,97439.37
2019-02-08T20:01:28.552Z,97439.19
2019-02-08T20:03:58.712Z,97440.69
2019-02-08T20:06:29.114Z,97444.36
2019-02-08T20:08:59.514Z,97442.63
2019-02-08T20:11:30.005Z,97437.75
2019-02-08T20:14:00.439Z,97438.66
2019-02-08T20:16:30.890Z,97431.03
2019-02-08T20:19:01.148Z,97430.91
2019-02-08T20:21:31.547Z,97432.66
2019-02-08T20:24:01.823Z,97437.27
2019-02-08T20:26:32.132Z,97426.88
2019-02-08T20:29:02.506Z,97422.23
2019-02-08T20:31:32.750Z,97416.76
2019-02-08T20:34:03.163Z,97420.62
2019-02-08T20:36:33.008Z,97431.97
2019-02-08T20:39:03.453Z,97426.53
2019-02-08T20:41:33.820Z,97422.95
2019-02-08T20:44:04.236Z,97419.05
2019-02-08T20:46:34.569Z,97410.33
2019-02-08T20:49:05.060Z,97406.34
2019-02-08T20:51:35.598Z,97402.16
2019-02-08T20:54:06.161Z,97399.94
2019-02-08T20:56:39.465Z,97400.69
2019-02-08T20:59:09.964Z,97404.34
2019-02-08T21:01:40.516Z,97399.06
2019-02-08T21:04:10.835Z,97408.73
2019-02-08T21:06:42.998Z,97398.77
2019-02-08T21:09:15.306Z,97392.26
2019-02-08T21:11:45.771Z,97381.11
2019-02-08T21:14:16.059Z,97382.02
2019-02-08T21:16:46.271Z,97375.50
2019-02-08T21:19:16.555Z,97370.61
2019-02-08T21:21:46.948Z,97370.74
2019-02-08T21:24:17.354Z,97359.27
2019-02-08T21:26:47.749Z,97361.28
2019-02-08T21:29:18.323Z,97359.59
2019-02-08T21:31:48.792Z,97348.41
2019-02-08T21:34:19.069Z,97351.54
2019-02-08T21:36:49.601Z,97361.89
2019-02-08T21:39:20.002Z,97349.75
2019-02-08T21:41:50.576Z,97350.75
2019-02-08T21:44:20.938Z,97339.14
2019-02-08T21:46:51.407Z,97334.34
2019-02-08T21:49:21.770Z,97340.36
2019-02-08T21:51:52.138Z,97341.17
2019-02-08T21:54:22.567Z,97337.59
2019-02-08T21:56:52.877Z,97339.84
2019-02-08T21:59:24.343Z,97325.06
2019-02-08T22:01:54.610Z,97323.55
2019-02-08T22:04:25.016Z,97321.62
2019-02-08T22:06:55.328Z,97324.94
2019-02-08T22:09:26.777Z,97319.98
2019-02-08T22:11:56.976Z,97321.30
2019-02-08T22:14:27.448Z,97317.05
2019-02-08T22:16:57.801Z,97308.82
2019-02-08T22:19:27.977Z,97310.08
2019-02-08T22:21:58.339Z,97307.38
2019-02-08T22:24:28.652Z,97295.93
2019-02-08T22:26:59.000Z,97297.28
2019-02-08T22:29:29.356Z,97297.68
2019-02-08T22:31:59.763Z,97291.05
2019-02-08T22:34:30.131Z,97295.70
2019-02-08T22:37:00.607Z,97299.77
2019-02-08T22:39:31.006Z,97296.63
2019-02-08T22:42:01.404Z,97296.52
2019-02-08T22:44:31.770Z,97295.09
2019-02-08T22:47:02.093Z,97298.89
2019-02-08T22:49:32.427Z,97297.44
2019-02-08T22:52:02.745Z,97294.33
2019-02-08T22:54:33.087Z,97301.34
2019-02-08T22:57:03.230Z,97311.85
2019-02-08T22:59:33.456Z,97301.67
2019-02-08T23:02:05.049Z,97296.91
2019-02-08T23:04:35.346Z,97298.44
2019-02-08T23:07:06.387Z,97298.38
2019-02-08T23:09:36.721Z,97304.96
2019-02-08T23:12:08.006Z,97299.38
2019-02-08T23:14:38.264Z,97305.82
2019-02-08T23:17:08.534Z,97305.45
2019-02-08T23:19:38.849Z,97297.31
2019-02-08T23:22:09.253Z,97297.56
2019-02-08T23:24:39.561Z,97301.44
2019-02-08T23:27:09.848Z,97295.16
2019-02-08T23:29:40.121Z,97291.30
2019-02-08T23:32:10.592Z,97270.72
2019-02-08T23:34:41.027Z,97273.81
2019-02-08T23:37:11.342Z,97270.00
2019-02-08T23:39:41.767Z,97270.28
2019-02-08T23:42:12.156Z,97252.81
2019-02-08T23:44:42.454Z,97252.14
2019-02-08T23:47:12.662Z,97245.77
2019-02-08T23:49:42.841Z,97244.08
2019-02-08T23:52:13.177Z,97251.34
2019-02-08T23:54:44.628Z,97244.57
2019-02-08T23:57:15.053Z,97242.12
2019-02-08T23:59:45.349Z,97240.88
